Map

Track Data

SID SEASON NUMBER BASIN SUBBASIN NAME ISO_TIME NATURE LAT LON WMO_WIND WMO_PRES WMO_AGENCY TRACK_TYPE DIST2LAND LANDFALL IFLAG USA_AGENCY USA_ATCF_ID USA_LAT USA_LON USA_RECORD USA_STATUS USA_WIND USA_PRES USA_SSHS USA_R34_NE USA_R34_SE USA_R34_SW USA_R34_NW USA_R50_NE USA_R50_SE USA_R50_SW USA_R50_NW USA_R64_NE USA_R64_SE USA_R64_SW USA_R64_NW USA_POCI USA_ROCI USA_RMW USA_EYE TOKYO_LAT TOKYO_LON TOKYO_GRADE TOKYO_WIND TOKYO_PRES TOKYO_R50_DIR TOKYO_R50_LONG TOKYO_R50_SHORT TOKYO_R30_DIR TOKYO_R30_LONG TOKYO_R30_SHORT TOKYO_LAND CMA_LAT CMA_LON CMA_CAT CMA_WIND CMA_PRES HKO_LAT HKO_LON HKO_CAT HKO_WIND HKO_PRES NEWDELHI_LAT NEWDELHI_LON NEWDELHI_GRADE NEWDELHI_WIND NEWDELHI_PRES NEWDELHI_CI NEWDELHI_DP NEWDELHI_POCI REUNION_LAT REUNION_LON REUNION_TYPE REUNION_WIND REUNION_PRES REUNION_TNUM REUNION_CI REUNION_RMW REUNION_R34_NE REUNION_R34_SE REUNION_R34_SW REUNION_R34_NW REUNION_R50_NE REUNION_R50_SE REUNION_R50_SW REUNION_R50_NW REUNION_R64_NE REUNION_R64_SE REUNION_R64_SW REUNION_R64_NW BOM_LAT BOM_LON BOM_TYPE BOM_WIND BOM_PRES BOM_TNUM BOM_CI BOM_RMW BOM_R34_NE BOM_R34_SE BOM_R34_SW BOM_R34_NW BOM_R50_NE BOM_R50_SE BOM_R50_SW BOM_R50_NW BOM_R64_NE BOM_R64_SE BOM_R64_SW BOM_R64_NW BOM_ROCI BOM_POCI BOM_EYE BOM_POS_METHOD BOM_PRES_METHOD NADI_LAT NADI_LON NADI_CAT NADI_WIND NADI_PRES WELLINGTON_LAT WELLINGTON_LON WELLINGTON_WIND WELLINGTON_PRES DS824_LAT DS824_LON DS824_STAGE DS824_WIND DS824_PRES TD9636_LAT TD9636_LON TD9636_STAGE TD9636_WIND TD9636_PRES TD9635_LAT TD9635_LON TD9635_WIND TD9635_PRES TD9635_ROCI NEUMANN_LAT NEUMANN_LON NEUMANN_CLASS NEUMANN_WIND NEUMANN_PRES MLC_LAT MLC_LON MLC_CLASS MLC_WIND MLC_PRES USA_GUST BOM_GUST BOM_GUST_PER REUNION_GUST REUNION_GUST_PER USA_SEAHGT USA_SEARAD_NE USA_SEARAD_SE USA_SEARAD_SW USA_SEARAD_NW STORM_SPEED STORM_DIR
1848112S07444 1848 8 SI MM NOT_NAMED 1848-04-20 18:00:00 NR -7.10000 83.7000 main 1496 1494 __________O___ -1 -7.10000 83.7000 7 6 226
1848112S07444 1848 8 SI MM NOT_NAMED 1848-04-20 21:00:00 NR -7.31882 83.4735 main 1513 1511 __________P___ -1 -7.31882 83.4735 7 6 226
1848112S07444 1848 8 SI MM NOT_NAMED 1848-04-21 00:00:00 NR -7.54008 83.2476 main 1529 1529 __________P___ -1 -7.54008 83.2476 7 6 225
1848112S07444 1848 8 SI MM NOT_NAMED 1848-04-21 03:00:00 NR -7.76629 83.0228 main 1558 1556 __________P___ -1 -7.76629 83.0228 7 6 224
1848112S07444 1848 8 SI MM NOT_NAMED 1848-04-21 06:00:00 NR -8.00000 82.8000 main 1576 1576 __________O___ -1 -8.00000 82.8000 7 6 223
1848112S07444 1848 8 SI MM NOT_NAMED 1848-04-21 09:00:00 NR -8.24281 82.5822 main 1595 1595 __________P___ -1 -8.24281 82.5822 7 6 220
1848112S07444 1848 8 SI MM NOT_NAMED 1848-04-21 12:00:00 NR -8.49251 82.3826 main 1625 1624 __________P___ -1 -8.49251 82.3826 7 6 216
1848112S07444 1848 8 SI MM NOT_NAMED 1848-04-21 15:00:00 NR -8.74595 82.2167 main 1645 1645 __________P___ -1 -8.74595 82.2167 7 6 209
1848112S07444 1848 8 SI MM NOT_NAMED 1848-04-21 18:00:00 NR -9.00000 82.1000 main 1677 1677 __________O___ -1 -9.00000 82.1000 7 5 202
1848112S07444 1848 8 SI MM NOT_NAMED 1848-04-21 21:00:00 NR -9.24178 82.0172 main 1699 1699 __________P___ -1 -9.24178 82.0172 7 5 193
1848112S07444 1848 8 SI MM NOT_NAMED 1848-04-22 00:00:00 NR -9.48487 81.9876 main 1732 1732 __________P___ -1 -9.48487 81.9876 7 5 182
1848112S07444 1848 8 SI MM NOT_NAMED 1848-04-22 03:00:00 NR -9.73552 82.0142 main 1754 1754 __________P___ -1 -9.73552 82.0142 7 5 167
1848112S07444 1848 8 SI MM NOT_NAMED 1848-04-22 06:00:00 NR -10.0000 82.1000 main 1789 1789 __________O___ -1 -10.0000 82.1000 7 6 159
1848112S07444 1848 8 SI MM NOT_NAMED 1848-04-22 09:00:00 NR -10.3019 82.2342 main 1823 1823 __________P___ -1 -10.3019 82.2342 7 7 153
1848112S07444 1848 8 SI MM NOT_NAMED 1848-04-22 12:00:00 NR -10.6150 82.4248 main 1859 1859 __________P___ -1 -10.6150 82.4248 7 7 146
1848112S07444 1848 8 SI MM NOT_NAMED 1848-04-22 15:00:00 NR -10.9206 82.6530 main 1896 1896 __________P___ -1 -10.9206 82.6530 7 8 141
1848112S07444 1848 8 SI MM NOT_NAMED 1848-04-22 18:00:00 NR -11.2000 82.9000 main 1932 1932 __________O___ -1 -11.2000 82.9000 7 7 137
1848112S07444 1848 8 SI MM NOT_NAMED 1848-04-22 21:00:00 NR -11.4205 83.1197 main 1958 1958 __________P___ -1 -11.4205 83.1197 7 6 133
1848112S07444 1848 8 SI MM NOT_NAMED 1848-04-23 00:00:00 NR -11.6148 83.3555 main 1985 1985 __________P___ -1 -11.6148 83.3555 7 6 128
1848112S07444 1848 8 SI MM NOT_NAMED 1848-04-23 03:00:00 NR -11.8017 83.6135 main 2010 2010 __________P___ -1 -11.8017 83.6135 7 7 126
1848112S07444 1848 8 SI MM NOT_NAMED 1848-04-23 06:00:00 NR -12.0000 83.9000 main 2017 2003 __________O___ -1 -12.0000 83.9000 7 7 127
1848112S07444 1848 8 SI MM NOT_NAMED 1848-04-23 09:00:00 NR -12.2396 84.2091 main 2003 1989 __________P___ -1 -12.2396 84.2091 7 8 128
1848112S07444 1848 8 SI MM NOT_NAMED 1848-04-23 12:00:00 NR -12.4923 84.5476 main 1996 1974 __________P___ -1 -12.4923 84.5476 7 9 127
1848112S07444 1848 8 SI MM NOT_NAMED 1848-04-23 15:00:00 NR -12.7489 84.9123 main 1974 1961 __________P___ -1 -12.7489 84.9123 7 9 125
1848112S07444 1848 8 SI MM NOT_NAMED 1848-04-23 18:00:00 NR -13.0000 85.3000 main 1961 1942 __________O___ -1 -13.0000 85.3000 7 9 122
1848112S07444 1848 8 SI MM NOT_NAMED 1848-04-23 21:00:00 NR -13.2385 85.7072 main 1942 1924 __________P___ -1 -13.2385 85.7072 7 9 120
1848112S07444 1848 8 SI MM NOT_NAMED 1848-04-24 00:00:00 NR -13.4656 86.1294 main 1932 1908 __________P___ -1 -13.4656 86.1294 7 9 118
1848112S07444 1848 8 SI MM NOT_NAMED 1848-04-24 03:00:00 NR -13.6850 86.5619 main 1907 1892 __________P___ -1 -13.6850 86.5619 7 10 117
1848112S07444 1848 8 SI MM NOT_NAMED 1848-04-24 06:00:00 NR -13.9000 87.0000 main 1892 __________O___ -1 -13.9000 87.0000 7 10 117

About IBTrACS Database

This database is a web-friendly format of International Best Track Archive for Climate Stewardship (IBTrACS), a global best track data archive curated by NOAA dating back to 1842.

Updated: 2021-11-26